Time;durP1;ratioP1;P1;durP2;ratioP2;P2;SDS_P1;SDS_P2;PMS_P1;PMS_P2;Temp;Humidity;BMP_temperature;BMP_pressure;BME280_temperature;BME280_humidity;BME280_pressure;Samples;Min_cycle;Max_cycle;Signal;HPM_P1;HPM_P2
2021/07/04 00:02:03;;;;;;;8.73;7.50;;;18.40;99.90;;;;;;12391615;28;20462;-42
2021/07/04 00:08:09;;;;;;;9.65;7.65;;;18.20;99.90;;;;;;12384859;28;20120;-40
2021/07/04 00:14:12;;;;;;;10.88;8.15;;;18.20;99.90;;;;;;12388398;28;20565;-40
2021/07/04 00:20:17;;;;;;;11.57;8.18;;;18.20;99.90;;;;;;12390217;28;20807;-40
2021/07/04 00:26:18;;;;;;;13.20;8.30;;;18.20;99.90;;;;;;12380416;28;20115;-40
2021/07/04 00:32:20;;;;;;;10.15;7.65;;;18.20;99.90;;;;;;12388874;28;20096;-40
2021/07/04 00:38:26;;;;;;;9.88;8.68;;;18.20;99.90;;;;;;12395879;28;20061;-40
2021/07/04 00:44:28;;;;;;;10.10;8.17;;;18.20;99.90;;;;;;12388945;28;20046;-40
2021/07/04 00:50:31;;;;;;;8.70;7.50;;;18.10;99.90;;;;;;12386500;28;20054;-41
2021/07/04 00:56:33;;;;;;;9.07;8.07;;;18.10;99.90;;;;;;12386896;28;20062;-42
2021/07/04 01:02:35;;;;;;;10.02;7.55;;;18.00;99.90;;;;;;12390346;28;20054;-41
2021/07/04 01:08:37;;;;;;;11.15;8.05;;;18.00;99.90;;;;;;12391783;28;20065;-41
2021/07/04 01:14:39;;;;;;;11.45;7.80;;;18.00;99.90;;;;;;12385057;28;20047;-40
2021/07/04 01:20:42;;;;;;;8.90;7.22;;;18.00;99.90;;;;;;12389561;28;20076;-41
2021/07/04 01:26:44;;;;;;;10.57;7.50;;;18.10;99.90;;;;;;12383853;28;20061;-41
2021/07/04 01:32:46;;;;;;;10.45;7.68;;;18.10;99.90;;;;;;12388012;28;20050;-40
2021/07/04 01:38:48;;;;;;;8.45;7.13;;;18.20;99.90;;;;;;12382811;28;20073;-40
2021/07/04 01:44:50;;;;;;;14.35;7.95;;;18.20;99.90;;;;;;12388806;28;20070;-40
2021/07/04 01:50:52;;;;;;;9.05;7.32;;;18.20;99.90;;;;;;12382283;28;20115;-40
2021/07/04 01:56:53;;;;;;;10.85;6.68;;;18.20;99.90;;;;;;12380850;28;20050;-40
2021/07/04 02:02:58;;;;;;;13.35;6.55;;;18.20;99.90;;;;;;12383836;28;20124;-40
2021/07/04 02:09:00;;;;;;;9.18;6.20;;;18.20;99.90;;;;;;12389159;28;20120;-41
2021/07/04 02:15:08;;;;;;;9.75;6.82;;;18.10;99.90;;;;;;12381262;28;20060;-40
2021/07/04 02:21:10;;;;;;;11.45;7.43;;;18.20;99.90;;;;;;12378241;28;20559;-40
2021/07/04 02:27:12;;;;;;;11.88;7.18;;;18.20;99.90;;;;;;12383730;28;24238;-40
2021/07/04 02:33:15;;;;;;;8.48;6.55;;;18.20;99.90;;;;;;12380189;28;20148;-41
2021/07/04 02:39:18;;;;;;;10.13;7.15;;;18.10;99.90;;;;;;12390432;28;20049;-40
2021/07/04 02:45:20;;;;;;;10.82;6.72;;;17.90;99.90;;;;;;12388704;28;20053;-40
2021/07/04 02:51:22;;;;;;;9.43;6.85;;;17.90;99.90;;;;;;12394800;28;20050;-40
2021/07/04 02:57:24;;;;;;;14.25;6.80;;;18.00;99.90;;;;;;12392403;28;20147;-40
2021/07/04 03:03:26;;;;;;;11.40;7.18;;;18.00;99.90;;;;;;12390802;28;20483;-40
2021/07/04 03:09:28;;;;;;;13.88;7.35;;;17.90;99.90;;;;;;12395616;28;20058;-40
2021/07/04 03:15:29;;;;;;;14.13;7.07;;;17.80;99.90;;;;;;12380009;28;20123;-41
2021/07/04 03:21:31;;;;;;;11.52;6.88;;;17.90;99.90;;;;;;12380382;28;20046;-40
2021/07/04 03:27:34;;;;;;;12.40;7.55;;;17.80;99.90;;;;;;12390761;28;20051;-40
2021/07/04 03:33:36;;;;;;;7.82;7.00;;;17.60;99.90;;;;;;12388872;28;20473;-40
2021/07/04 03:39:37;;;;;;;10.88;7.10;;;17.70;99.90;;;;;;12392511;28;20116;-40
2021/07/04 03:45:39;;;;;;;11.30;7.32;;;17.80;99.90;;;;;;12387275;28;20107;-41
2021/07/04 03:51:41;;;;;;;10.73;7.30;;;17.80;99.90;;;;;;12379689;28;20482;-40
2021/07/04 03:57:43;;;;;;;9.73;6.55;;;17.80;99.90;;;;;;12389284;28;20137;-40
2021/07/04 04:03:46;;;;;;;13.05;7.25;;;17.70;99.90;;;;;;12383186;28;20050;-40
2021/07/04 04:09:51;;;;;;;11.73;7.43;;;17.70;99.90;;;;;;12382269;28;20045;-41
2021/07/04 04:15:53;;;;;;;12.23;7.20;;;17.70;99.90;;;;;;12382098;28;20292;-40
2021/07/04 04:21:54;;;;;;;15.32;7.75;;;17.60;99.90;;;;;;12385705;28;20096;-40
2021/07/04 04:27:56;;;;;;;11.02;7.45;;;17.60;99.90;;;;;;12374937;28;20710;-40
2021/07/04 04:33:58;;;;;;;13.57;7.55;;;17.70;99.90;;;;;;12386412;28;20116;-40
2021/07/04 04:40:00;;;;;;;8.95;7.05;;;17.70;99.90;;;;;;12381552;28;20054;-40
2021/07/04 04:46:02;;;;;;;12.52;7.85;;;17.60;99.90;;;;;;12386317;28;20050;-41
2021/07/04 04:52:05;;;;;;;11.43;7.82;;;17.50;99.90;;;;;;12390191;28;20049;-40
2021/07/04 04:58:07;;;;;;;10.98;7.85;;;17.50;99.90;;;;;;12397777;28;20072;-40
2021/07/04 05:04:09;;;;;;;10.35;7.53;;;17.60;99.90;;;;;;12388938;28;20046;-40
2021/07/04 05:10:12;;;;;;;9.32;8.32;;;17.80;99.90;;;;;;12388281;28;20048;-40
2021/07/04 05:16:14;;;;;;;12.88;8.52;;;17.90;99.90;;;;;;12381922;28;20049;-40
2021/07/04 05:22:16;;;;;;;11.52;8.07;;;17.90;99.90;;;;;;12385983;28;20056;-40
2021/07/04 05:28:17;;;;;;;11.48;7.78;;;17.80;99.90;;;;;;12385785;28;20100;-40
2021/07/04 05:34:19;;;;;;;12.27;8.93;;;17.90;99.90;;;;;;12381434;28;20316;-40
2021/07/04 05:40:24;;;;;;;10.57;8.15;;;17.80;99.90;;;;;;12380082;28;20081;-41
2021/07/04 05:46:27;;;;;;;12.73;9.07;;;18.00;99.90;;;;;;12390286;28;20054;-40
2021/07/04 05:52:33;;;;;;;9.73;8.68;;;18.20;99.90;;;;;;12385998;28;20096;-40
2021/07/04 05:58:35;;;;;;;13.32;9.07;;;18.20;99.90;;;;;;12380554;28;20690;-40
2021/07/04 06:04:37;;;;;;;12.38;9.63;;;18.20;99.90;;;;;;12379312;28;20050;-41
2021/07/04 06:10:38;;;;;;;9.65;8.65;;;18.30;99.90;;;;;;12397382;28;20467;-40
2021/07/04 06:16:40;;;;;;;14.10;8.43;;;18.40;99.90;;;;;;12392710;28;20415;-41
2021/07/04 06:22:42;;;;;;;9.55;7.43;;;18.40;99.90;;;;;;12395559;28;20061;-41
2021/07/04 06:28:45;;;;;;;10.45;8.25;;;18.40;99.90;;;;;;12398542;28;20076;-40
2021/07/04 06:34:47;;;;;;;9.02;7.95;;;18.50;99.90;;;;;;12397039;28;20054;-40
2021/07/04 06:40:49;;;;;;;8.77;7.78;;;18.60;99.90;;;;;;12388546;28;20046;-41
2021/07/04 06:46:50;;;;;;;10.50;8.35;;;18.60;99.90;;;;;;12385710;28;20527;-40
2021/07/04 06:52:52;;;;;;;11.20;7.93;;;18.60;99.90;;;;;;12394536;28;20045;-41
2021/07/04 06:58:54;;;;;;;11.55;8.63;;;18.70;99.90;;;;;;12385596;28;20458;-40
2021/07/04 07:04:56;;;;;;;9.57;8.27;;;18.70;99.90;;;;;;12388959;28;20145;-40
2021/07/04 07:10:58;;;;;;;9.27;7.65;;;18.60;99.90;;;;;;12387254;28;20050;-42
2021/07/04 07:17:00;;;;;;;8.82;7.75;;;18.70;99.90;;;;;;12381121;28;20065;-40
2021/07/04 07:23:02;;;;;;;9.50;7.57;;;18.90;99.90;;;;;;12390615;28;20467;-40
2021/07/04 07:29:04;;;;;;;9.25;7.60;;;19.10;99.90;;;;;;12383407;28;20462;-41
2021/07/04 07:35:07;;;;;;;10.18;8.10;;;19.30;99.90;;;;;;12380207;28;20053;-41
2021/07/04 07:41:09;;;;;;;12.25;8.05;;;19.40;99.90;;;;;;12382289;28;20046;-42
2021/07/04 07:47:12;;;;;;;9.45;7.65;;;19.40;99.90;;;;;;12383433;28;20752;-40
2021/07/04 07:53:14;;;;;;;8.95;6.65;;;19.50;99.90;;;;;;12386133;28;20049;-41
2021/07/04 07:59:17;;;;;;;8.37;5.97;;;19.50;99.90;;;;;;12348297;28;1075553;-40
2021/07/04 08:05:19;;;;;;;7.05;5.90;;;19.50;99.90;;;;;;12383203;28;20053;-40
2021/07/04 08:11:20;;;;;;;9.75;6.20;;;19.60;99.90;;;;;;12373083;28;20054;-40
2021/07/04 08:17:22;;;;;;;7.50;5.40;;;19.70;99.90;;;;;;12369524;28;20050;-41
2021/07/04 08:23:24;;;;;;;9.27;6.30;;;19.80;99.90;;;;;;12387539;28;20050;-41
2021/07/04 08:29:26;;;;;;;7.03;6.05;;;19.80;99.90;;;;;;12374218;28;20450;-41
2021/07/04 08:35:28;;;;;;;7.47;6.25;;;19.90;99.90;;;;;;12388569;28;20741;-42
2021/07/04 08:41:30;;;;;;;7.90;6.28;;;20.00;99.90;;;;;;12383128;28;20053;-43
2021/07/04 08:47:32;;;;;;;8.25;6.22;;;20.30;99.90;;;;;;12372661;28;20053;-42
2021/07/04 08:53:35;;;;;;;14.57;6.45;;;20.40;99.90;;;;;;12383557;28;20054;-41
2021/07/04 08:59:38;;;;;;;7.30;5.57;;;20.20;99.90;;;;;;12380716;28;20372;-41
2021/07/04 09:05:43;;;;;;;6.35;5.63;;;20.10;99.90;;;;;;12388517;28;20061;-41
2021/07/04 09:11:57;;;;;;;6.65;5.70;;;20.00;99.90;;;;;;12377483;28;20095;-40
2021/07/04 09:17:59;;;;;;;;;;;20.10;99.90;;;;;;12379852;28;20058;-40
2021/07/04 09:24:20;;;;;;;8.88;6.70;;;20.30;99.90;;;;;;12378585;28;20012;-41
2021/07/04 09:30:22;;;;;;;9.35;6.30;;;20.40;99.90;;;;;;12369245;28;20459;-41
2021/07/04 09:36:26;;;;;;;8.93;6.20;;;20.90;99.90;;;;;;12380468;28;20422;-41
2021/07/04 09:42:28;;;;;;;9.02;6.72;;;21.30;99.90;;;;;;12372652;28;20571;-41
2021/07/04 09:48:30;;;;;;;9.63;6.65;;;21.60;99.90;;;;;;12377482;28;20454;-44
2021/07/04 09:54:32;;;;;;;6.72;5.65;;;21.90;99.90;;;;;;12373889;28;20073;-40
2021/07/04 10:00:36;;;;;;;7.30;5.28;;;21.80;99.90;;;;;;12384457;28;20111;-41
2021/07/04 10:06:49;;;;;;;5.82;5.10;;;21.90;99.90;;;;;;12381819;28;20430;-41
2021/07/04 10:12:54;;;;;;;10.40;6.43;;;21.80;99.90;;;;;;12378423;28;20043;-41
2021/07/04 10:18:58;;;;;;;9.55;6.45;;;21.60;99.90;;;;;;12380635;28;20141;-42
2021/07/04 10:25:01;;;;;;;9.35;6.45;;;22.00;99.90;;;;;;12376331;28;20050;-40
2021/07/04 10:31:09;;;;;;;5.85;5.22;;;21.90;99.90;;;;;;12376296;28;20076;-42
2021/07/04 10:37:12;;;;;;;8.18;6.63;;;21.90;99.90;;;;;;12387205;28;20080;-41
2021/07/04 10:43:51;;;;;;;7.13;6.03;;;21.80;99.90;;;;;;12383874;28;20120;-41
2021/07/04 10:49:56;;;;;;;7.47;6.13;;;22.10;99.90;;;;;;12380459;28;20054;-43
2021/07/04 10:55:57;;;;;;;8.25;6.57;;;22.40;99.90;;;;;;12386488;28;20055;-41
2021/07/04 11:02:00;;;;;;;6.88;5.57;;;22.50;99.90;;;;;;12377302;28;20103;-41
2021/07/04 11:08:02;;;;;;;7.53;6.27;;;23.10;99.90;;;;;;12383252;28;20064;-40
2021/07/04 11:14:08;;;;;;;7.30;6.35;;;23.10;99.90;;;;;;12372736;28;20305;-41
2021/07/04 11:20:11;;;;;;;8.50;6.78;;;22.80;99.90;;;;;;12387705;28;20042;-41
2021/07/04 11:26:15;;;;;;;7.90;6.47;;;22.50;99.90;;;;;;12379340;28;20314;-42
2021/07/04 11:32:23;;;;;;;9.13;6.90;;;22.30;99.90;;;;;;12372534;28;20042;-42
2021/07/04 11:38:28;;;;;;;9.65;7.65;;;22.30;99.90;;;;;;12382303;28;20450;-40
2021/07/04 11:44:30;;;;;;;7.57;6.57;;;22.40;99.90;;;;;;12380668;28;20105;-41
2021/07/04 11:50:45;;;;;;;9.88;7.25;;;22.30;99.90;;;;;;12385970;28;20442;-41
2021/07/04 11:56:51;;;;;;;9.70;7.15;;;22.40;99.90;;;;;;12383434;28;20100;-40
2021/07/04 12:02:54;;;;;;;6.80;6.05;;;22.70;99.90;;;;;;12384127;28;20912;-42
2021/07/04 12:09:05;;;;;;;8.48;6.63;;;22.60;99.90;;;;;;12376358;28;20093;-40
2021/07/04 12:15:09;;;;;;;8.40;7.07;;;22.50;99.90;;;;;;12371390;28;20120;-40
2021/07/04 12:21:11;;;;;;;8.63;6.50;;;22.50;99.90;;;;;;12374976;28;20050;-41
2021/07/04 12:27:13;;;;;;;8.25;6.63;;;22.40;99.90;;;;;;12370352;28;20053;-41
2021/07/04 12:33:16;;;;;;;8.13;5.90;;;22.50;99.90;;;;;;12369163;28;20096;-41
2021/07/04 12:39:18;;;;;;;9.27;6.43;;;23.40;99.90;;;;;;12372681;28;20042;-41
2021/07/04 12:45:24;;;;;;;6.90;6.13;;;23.80;99.90;;;;;;12378520;28;20498;-40
2021/07/04 12:51:46;;;;;;;6.50;5.63;;;24.00;99.90;;;;;;12375044;28;20212;-40
2021/07/04 12:57:48;;;;;;;7.13;5.97;;;23.80;99.90;;;;;;12374754;28;20045;-40
2021/07/04 13:04:03;;;;;;;7.68;5.80;;;23.40;99.90;;;;;;12381190;28;20463;-40
2021/07/04 13:10:05;;;;;;;7.03;5.93;;;23.50;99.90;;;;;;12377471;28;20050;-40
2021/07/04 13:16:14;;;;;;;6.53;5.87;;;23.40;99.90;;;;;;12365784;28;20045;-41
2021/07/04 13:22:41;;;;;;;6.75;5.47;;;23.30;99.90;;;;;;12373002;28;20076;-40
2021/07/04 13:28:43;;;;;;;7.53;5.72;;;23.20;99.90;;;;;;12367624;28;20058;-41
2021/07/04 13:35:05;;;;;;;8.52;6.35;;;23.10;99.90;;;;;;12384810;28;20779;-41
2021/07/04 13:41:06;;;;;;;7.35;6.30;;;22.80;99.90;;;;;;12375453;28;20112;-41
2021/07/04 13:47:09;;;;;;;6.85;5.90;;;22.70;99.90;;;;;;12380244;28;20054;-40
2021/07/04 13:53:14;;;;;;;8.43;6.13;;;22.60;99.90;;;;;;12367856;28;20200;-40
2021/07/04 13:59:16;;;;;;;7.80;6.30;;;22.80;99.90;;;;;;12368256;28;20103;-40
2021/07/04 14:05:18;;;;;;;9.23;5.72;;;22.70;99.90;;;;;;12371476;28;20050;-40
2021/07/04 14:11:20;;;;;;;8.20;6.57;;;22.50;99.90;;;;;;12374156;28;20120;-40
2021/07/04 14:17:22;;;;;;;8.15;6.65;;;22.50;99.90;;;;;;12365783;28;20112;-40
2021/07/04 14:23:24;;;;;;;6.50;5.82;;;22.40;99.90;;;;;;12379640;28;20050;-40
2021/07/04 14:29:26;;;;;;;11.50;9.02;;;22.40;99.90;;;;;;12390165;28;20116;-40
2021/07/04 14:35:28;;;;;;;13.90;9.55;;;22.10;99.90;;;;;;12384759;28;20101;-41
2021/07/04 14:41:30;;;;;;;12.00;7.65;;;21.60;99.90;;;;;;12390103;28;20140;-40
2021/07/04 14:47:32;;;;;;;12.60;8.73;;;21.30;99.90;;;;;;12387313;28;20050;-41
2021/07/04 14:53:39;;;;;;;10.10;7.57;;;21.30;99.90;;;;;;12389461;28;20081;-40
2021/07/04 14:59:41;;;;;;;9.70;7.35;;;21.40;99.90;;;;;;12388763;28;20058;-40
2021/07/04 15:05:43;;;;;;;10.35;7.60;;;21.50;99.90;;;;;;12381052;28;20182;-41
2021/07/04 15:11:49;;;;;;;13.95;8.40;;;21.50;99.90;;;;;;12383134;28;20113;-41
2021/07/04 15:17:50;;;;;;;12.65;8.18;;;21.50;99.90;;;;;;12382266;28;20042;-40
2021/07/04 15:23:53;;;;;;;13.98;11.18;;;21.60;99.90;;;;;;12390166;28;20053;-40
2021/07/04 15:29:55;;;;;;;10.23;8.23;;;21.70;99.90;;;;;;12381803;28;20356;-42
2021/07/04 15:35:57;;;;;;;5.38;4.80;;;22.00;99.90;;;;;;12377251;28;20630;-40
2021/07/04 15:41:59;;;;;;;3.85;2.00;;;22.00;99.90;;;;;;12374617;28;20049;-41
2021/07/04 15:48:01;;;;;;;3.97;1.95;;;21.70;99.90;;;;;;12376220;28;20145;-40
2021/07/04 15:54:04;;;;;;;15.38;3.42;;;20.10;99.90;;;;;;12369260;28;20062;-40
2021/07/04 16:00:11;;;;;;;7.55;2.70;;;19.10;99.90;;;;;;12376940;28;20089;-39
2021/07/04 16:06:18;;;;;;;9.90;3.15;;;18.60;99.90;;;;;;12383525;28;20054;-42
2021/07/04 16:12:19;;;;;;;9.38;2.72;;;17.70;99.90;;;;;;12383313;28;20128;-39
2021/07/04 16:18:21;;;;;;;4.47;2.42;;;17.60;99.90;;;;;;12380437;28;20118;-39
2021/07/04 16:24:23;;;;;;;5.95;3.40;;;17.40;99.90;;;;;;12384670;28;20442;-41
2021/07/04 16:30:25;;;;;;;6.78;3.67;;;17.60;99.90;;;;;;12393688;28;20057;-39
2021/07/04 16:36:27;;;;;;;4.25;2.85;;;17.30;99.90;;;;;;12382052;28;20103;-39
2021/07/04 16:42:29;;;;;;;4.38;2.70;;;17.10;99.90;;;;;;12384701;28;20058;-39
2021/07/04 16:48:31;;;;;;;5.57;3.08;;;17.00;99.90;;;;;;12398351;28;20120;-39
2021/07/04 16:54:33;;;;;;;5.30;2.88;;;16.90;99.90;;;;;;12385587;28;20418;-39
2021/07/04 17:00:35;;;;;;;7.68;4.13;;;16.90;99.90;;;;;;12379895;28;20054;-39
2021/07/04 17:06:37;;;;;;;7.82;3.60;;;16.90;99.90;;;;;;12382874;28;20535;-40
2021/07/04 17:12:50;;;;;;;9.00;3.90;;;17.00;99.90;;;;;;12375320;28;20048;-40
2021/07/04 17:18:52;;;;;;;5.85;2.92;;;17.00;99.90;;;;;;12364490;28;20049;-40
2021/07/04 17:24:54;;;;;;;5.57;3.75;;;17.20;99.90;;;;;;12377288;28;20050;-41
2021/07/04 17:30:55;;;;;;;6.50;3.97;;;17.30;99.90;;;;;;12378670;28;20394;-40
2021/07/04 17:36:57;;;;;;;8.48;3.97;;;17.10;99.90;;;;;;12385266;28;20943;-40
2021/07/04 17:42:59;;;;;;;8.75;4.35;;;17.10;99.90;;;;;;12388919;28;20054;-40
2021/07/04 17:49:01;;;;;;;9.73;4.03;;;17.20;99.90;;;;;;12387181;28;20486;-40
2021/07/04 17:55:06;;;;;;;8.40;4.10;;;17.20;99.90;;;;;;12384120;28;20046;-40
2021/07/04 18:01:09;;;;;;;7.13;3.92;;;17.20;99.90;;;;;;12385271;28;20046;-40
2021/07/04 18:07:10;;;;;;;6.43;4.75;;;17.20;99.90;;;;;;12393071;28;20046;-40
2021/07/04 18:13:12;;;;;;;7.38;4.43;;;17.30;99.90;;;;;;12396936;28;20454;-40
2021/07/04 18:19:16;;;;;;;6.95;4.00;;;17.30;99.90;;;;;;12393220;28;20514;-41
2021/07/04 18:25:19;;;;;;;5.90;4.32;;;17.50;99.90;;;;;;12387681;28;20050;-40
2021/07/04 18:31:21;;;;;;;7.13;4.40;;;17.50;99.90;;;;;;12394568;28;20510;-41
2021/07/04 18:37:24;;;;;;;9.63;4.65;;;17.50;99.90;;;;;;12393934;28;20197;-40
2021/07/04 18:43:27;;;;;;;6.53;4.57;;;17.60;99.90;;;;;;12401798;28;20112;-40
2021/07/04 18:49:29;;;;;;;8.65;4.88;;;17.60;99.90;;;;;;12396999;28;20050;-39
2021/07/04 18:55:30;;;;;;;7.68;4.60;;;17.60;99.90;;;;;;12392118;28;20054;-40
2021/07/04 19:01:33;;;;;;;7.57;4.90;;;17.50;99.90;;;;;;12394192;28;20479;-40
2021/07/04 19:07:45;;;;;;;8.18;5.15;;;17.40;99.90;;;;;;12389671;28;20042;-40
2021/07/04 19:13:47;;;;;;;13.52;5.57;;;17.20;99.90;;;;;;12394890;28;20050;-39
2021/07/04 19:19:49;;;;;;;8.38;5.72;;;17.20;99.90;;;;;;12396384;28;20045;-40
2021/07/04 19:25:51;;;;;;;9.02;5.18;;;17.20;99.90;;;;;;12397005;28;20111;-41
2021/07/04 19:31:53;;;;;;;10.05;5.50;;;17.30;99.90;;;;;;12386679;28;20049;-41
2021/07/04 19:37:56;;;;;;;8.55;4.88;;;17.20;99.90;;;;;;12391652;28;20141;-40
2021/07/04 19:43:57;;;;;;;7.97;5.07;;;17.20;99.90;;;;;;12394686;28;20104;-40
2021/07/04 19:50:00;;;;;;;6.57;5.20;;;17.10;99.90;;;;;;12393478;28;20867;-41
2021/07/04 19:56:03;;;;;;;8.43;4.95;;;17.10;99.90;;;;;;12391827;28;20051;-39
2021/07/04 20:02:05;;;;;;;8.15;5.18;;;17.20;99.90;;;;;;12390720;28;20649;-39
2021/07/04 20:08:10;;;;;;;10.70;4.35;;;17.30;99.90;;;;;;12390926;28;20128;-39
2021/07/04 20:14:12;;;;;;;13.32;4.72;;;17.20;99.90;;;;;;12384490;28;20054;-40
2021/07/04 20:20:16;;;;;;;18.88;5.20;;;17.10;99.90;;;;;;12383363;28;20046;-40
2021/07/04 20:26:19;;;;;;;8.13;4.85;;;17.00;99.90;;;;;;12388029;28;20089;-41
2021/07/04 20:32:21;;;;;;;11.53;4.90;;;16.90;99.90;;;;;;12382604;28;20093;-40
2021/07/04 20:38:23;;;;;;;6.72;4.82;;;16.80;99.90;;;;;;12391059;28;20050;-39
2021/07/04 20:44:26;;;;;;;7.30;5.43;;;16.70;99.90;;;;;;12384426;28;20581;-40
2021/07/04 20:50:28;;;;;;;9.55;5.10;;;16.60;99.90;;;;;;12382161;28;20070;-39
2021/07/04 20:56:32;;;;;;;9.18;4.53;;;16.60;99.90;;;;;;12378523;28;20284;-39
2021/07/04 21:02:34;;;;;;;13.02;4.25;;;16.50;99.90;;;;;;12377143;28;20115;-39
2021/07/04 21:08:37;;;;;;;13.50;4.47;;;16.50;99.90;;;;;;12383690;28;20062;-41
2021/07/04 21:14:39;;;;;;;6.63;4.47;;;16.40;99.90;;;;;;12371589;28;20489;-41
2021/07/04 21:20:42;;;;;;;10.30;5.22;;;16.40;99.90;;;;;;12358577;28;20057;-40
2021/07/04 21:26:44;;;;;;;11.45;5.50;;;16.40;99.90;;;;;;12387835;28;20108;-41
2021/07/04 21:32:47;;;;;;;11.77;5.72;;;16.40;99.90;;;;;;12383001;28;20046;-39
2021/07/04 21:38:53;;;;;;;17.05;6.20;;;16.50;99.90;;;;;;12389097;28;20054;-40
2021/07/04 21:44:55;;;;;;;14.80;6.60;;;16.40;99.90;;;;;;12388519;28;20053;-40
2021/07/04 21:50:57;;;;;;;12.82;7.40;;;16.50;99.90;;;;;;12389489;28;20987;-41
2021/07/04 21:56:59;;;;;;;14.95;8.80;;;16.40;99.90;;;;;;12386436;28;20054;-40
2021/07/04 22:03:01;;;;;;;21.08;9.80;;;16.40;99.90;;;;;;12382731;28;20477;-40
2021/07/04 22:09:05;;;;;;;13.15;9.63;;;16.40;99.90;;;;;;12386997;28;20058;-39
2021/07/04 22:15:09;;;;;;;18.45;10.25;;;16.30;99.90;;;;;;12377609;28;20060;-39
2021/07/04 22:21:11;;;;;;;15.70;10.97;;;16.30;99.90;;;;;;12379169;28;20042;-39
2021/07/04 22:27:12;;;;;;;16.77;10.93;;;16.30;99.90;;;;;;12384140;28;20049;-39
2021/07/04 22:33:14;;;;;;;16.52;10.73;;;16.30;99.90;;;;;;12382211;28;20096;-41
2021/07/04 22:39:16;;;;;;;19.00;11.68;;;16.30;99.90;;;;;;12390817;28;20438;-39
2021/07/04 22:45:20;;;;;;;14.95;10.43;;;16.30;99.90;;;;;;12377851;28;20846;-39
2021/07/04 22:51:24;;;;;;;17.83;11.23;;;16.20;99.90;;;;;;12396054;28;20081;-39
2021/07/04 22:57:26;;;;;;;18.95;10.27;;;16.20;99.90;;;;;;12402350;28;20058;-40
2021/07/04 23:03:29;;;;;;;15.10;9.80;;;16.20;99.90;;;;;;12394024;28;20417;-40
2021/07/04 23:09:33;;;;;;;14.90;10.50;;;16.20;99.90;;;;;;12388755;28;20119;-39
2021/07/04 23:15:36;;;;;;;19.60;11.73;;;16.10;99.90;;;;;;12385040;28;20046;-39
2021/07/04 23:21:38;;;;;;;19.42;10.93;;;16.10;99.90;;;;;;12395198;28;20054;-40
2021/07/04 23:27:41;;;;;;;16.88;9.32;;;16.10;99.90;;;;;;12393837;28;20050;-41
2021/07/04 23:33:43;;;;;;;17.98;9.98;;;16.00;99.90;;;;;;12393311;28;20099;-40
2021/07/04 23:39:45;;;;;;;22.90;11.70;;;15.90;99.90;;;;;;12394514;28;20446;-40
2021/07/04 23:45:47;;;;;;;24.40;15.15;;;15.90;99.90;;;;;;12397111;28;20169;-39
2021/07/04 23:51:49;;;;;;;26.00;15.00;;;15.90;99.90;;;;;;12397338;28;20058;-41
2021/07/04 23:57:51;;;;;;;24.00;14.82;;;15.70;99.90;;;;;;12396019;28;20407;-40
